Time,TemperatureF,DewpointF,PressureIn,WindDirection,WindDirectionDegrees,WindSpeedMPH,WindSpeedGustMPH,Humidity,HourlyPrecipIn,Conditions,Clouds,dailyrainin,SolarRadiationWatts/m^2,SoftwareType,DateUTC
2013-05-18 00:03:00,64.0,53.0,-100.00,SSE,163,7.0,14.0,68,0.00,,,0.00,0.000000,,2013-05-18 04:03:00,
2013-05-18 00:33:00,61.0,56.0,-100.00,SSE,158,7.0,13.0,85,0.00,,,0.00,0.000000,,2013-05-18 04:33:00,
2013-05-18 00:43:00,61.0,56.0,-100.00,SSE,158,7.0,13.0,85,0.00,,,0.00,0.000000,,2013-05-18 04:43:00,
2013-05-18 00:53:00,61.0,56.0,-100.00,SSE,158,7.0,13.0,85,0.00,,,0.00,0.000000,,2013-05-18 04:53:00,
2013-05-18 01:02:00,61.0,56.0,-100.00,SSE,158,7.0,13.0,85,0.00,,,0.00,0.000000,,2013-05-18 05:02:00,
2013-05-18 01:32:00,59.0,56.0,-100.00,SSE,164,5.0,13.0,90,0.13,,,0.13,0.000000,,2013-05-18 05:32:00,
2013-05-18 01:42:00,59.0,56.0,-100.00,SSE,164,5.0,13.0,90,0.13,,,0.13,0.000000,,2013-05-18 05:42:00,
2013-05-18 01:52:00,59.0,56.0,-100.00,SSE,164,5.0,13.0,90,0.13,,,0.13,0.000000,,2013-05-18 05:52:00,
2013-05-18 02:02:00,59.0,56.0,-100.00,SSE,164,5.0,13.0,90,0.13,,,0.13,0.000000,,2013-05-18 06:02:00,
2013-05-18 02:32:00,58.0,57.0,-100.00,SSE,167,5.0,11.0,98,0.06,,,0.19,0.000000,,2013-05-18 06:32:00,
2013-05-18 02:42:00,58.0,57.0,-100.00,SSE,167,5.0,11.0,98,0.06,,,0.19,0.000000,,2013-05-18 06:42:00,
2013-05-18 02:52:00,58.0,57.0,-100.00,SSE,167,5.0,11.0,98,0.06,,,0.19,0.000000,,2013-05-18 06:52:00,
2013-05-18 03:01:00,58.0,57.0,-100.00,SSE,167,5.0,11.0,98,0.06,,,0.19,0.000000,,2013-05-18 07:01:00,
2013-05-18 03:32:00,58.0,58.0,-100.00,South,184,7.0,14.0,99,0.04,,,0.23,0.000000,,2013-05-18 07:32:00,
2013-05-18 03:43:00,58.0,58.0,-100.00,South,184,7.0,14.0,99,0.04,,,0.23,0.000000,,2013-05-18 07:43:00,
2013-05-18 03:53:00,58.0,58.0,-100.00,South,184,7.0,14.0,99,0.04,,,0.23,0.000000,,2013-05-18 07:53:00,
2013-05-18 04:01:00,58.0,58.0,-100.00,South,184,7.0,14.0,99,0.04,,,0.23,0.000000,,2013-05-18 08:01:00,
2013-05-18 04:33:00,58.0,58.0,-100.00,SSE,161,7.0,16.0,99,0.12,,,0.35,0.000000,,2013-05-18 08:33:00,
2013-05-18 04:42:00,58.0,58.0,-100.00,SSE,161,7.0,16.0,99,0.12,,,0.35,0.000000,,2013-05-18 08:42:00,
2013-05-18 04:52:00,58.0,58.0,-100.00,SSE,161,7.0,16.0,99,0.12,,,0.35,0.000000,,2013-05-18 08:52:00,
2013-05-18 05:02:00,58.0,58.0,-100.00,SSE,161,7.0,16.0,99,0.12,,,0.35,0.000000,,2013-05-18 09:02:00,
2013-05-18 05:33:00,58.0,58.0,-100.00,SSE,168,7.0,14.0,100,0.06,,,0.41,0.000000,,2013-05-18 09:33:00,
2013-05-18 05:43:00,58.0,58.0,-100.00,SSE,168,7.0,14.0,100,0.06,,,0.41,0.000000,,2013-05-18 09:43:00,
2013-05-18 05:53:00,58.0,58.0,-100.00,SSE,168,7.0,14.0,100,0.06,,,0.41,0.000000,,2013-05-18 09:53:00,
2013-05-18 06:03:00,58.0,58.0,-100.00,SSE,168,7.0,14.0,100,0.06,,,0.41,0.000000,,2013-05-18 10:03:00,
2013-05-18 06:33:00,58.0,58.0,-100.00,SSE,168,7.0,17.0,100,0.01,,,0.42,0.000000,,2013-05-18 10:33:00,
2013-05-18 06:42:00,58.0,58.0,-100.00,SSE,168,7.0,17.0,100,0.01,,,0.42,0.000000,,2013-05-18 10:42:00,
2013-05-18 06:53:00,58.0,58.0,-100.00,SSE,168,7.0,17.0,100,0.01,,,0.42,0.000000,,2013-05-18 10:53:00,
2013-05-18 07:03:00,58.0,58.0,-100.00,SSE,168,7.0,17.0,100,0.01,,,0.42,0.000000,,2013-05-18 11:03:00,
2013-05-18 07:33:00,58.0,58.0,-100.00,South,176,9.0,16.0,100,0.00,,,0.42,4.000000,,2013-05-18 11:33:00,
2013-05-18 07:42:00,58.0,58.0,-100.00,South,176,9.0,16.0,100,0.00,,,0.42,4.000000,,2013-05-18 11:42:00,
2013-05-18 07:52:00,58.0,58.0,-100.00,South,176,9.0,16.0,100,0.00,,,0.42,4.000000,,2013-05-18 11:52:00,
2013-05-18 08:02:00,58.0,58.0,-100.00,South,176,9.0,16.0,100,0.00,,,0.42,4.000000,,2013-05-18 12:02:00,
2013-05-18 08:33:00,58.0,57.0,-100.00,South,187,8.0,21.0,98,0.00,,,0.42,15.000000,,2013-05-18 12:33:00,
2013-05-18 08:42:00,58.0,57.0,-100.00,South,187,8.0,21.0,98,0.00,,,0.42,15.000000,,2013-05-18 12:42:00,
2013-05-18 08:52:00,58.0,57.0,-100.00,South,187,8.0,21.0,98,0.00,,,0.42,15.000000,,2013-05-18 12:52:00,
2013-05-18 09:01:00,58.0,57.0,-100.00,South,187,8.0,21.0,98,0.00,,,0.42,15.000000,,2013-05-18 13:01:00,
2013-05-18 09:33:00,56.0,55.0,-100.00,South,180,11.0,19.0,98,0.06,,,0.48,39.000000,,2013-05-18 13:33:00,
2013-05-18 09:43:00,56.0,55.0,-100.00,South,180,11.0,19.0,98,0.06,,,0.48,39.000000,,2013-05-18 13:43:00,
2013-05-18 09:53:00,56.0,55.0,-100.00,South,180,11.0,19.0,98,0.06,,,0.48,39.000000,,2013-05-18 13:53:00,
2013-05-18 10:04:00,56.0,55.0,-100.00,South,180,11.0,19.0,98,0.06,,,0.48,39.000000,,2013-05-18 14:04:00,
2013-05-18 10:33:00,58.0,57.0,-100.00,South,177,10.0,20.0,96,0.01,,,0.49,230.000000,,2013-05-18 14:33:00,
2013-05-18 10:42:00,58.0,57.0,-100.00,South,177,10.0,20.0,96,0.01,,,0.49,230.000000,,2013-05-18 14:42:00,
2013-05-18 10:54:00,58.0,57.0,-100.00,South,177,10.0,20.0,96,0.01,,,0.49,230.000000,,2013-05-18 14:54:00,
2013-05-18 11:03:00,58.0,57.0,-100.00,South,177,10.0,20.0,96,0.01,,,0.49,230.000000,,2013-05-18 15:03:00,
2013-05-18 11:33:00,58.0,57.0,-100.00,South,176,8.0,16.0,95,0.00,,,0.49,323.000000,,2013-05-18 15:33:00,
2013-05-18 11:43:00,58.0,57.0,-100.00,South,176,8.0,16.0,95,0.00,,,0.49,323.000000,,2013-05-18 15:43:00,
2013-05-18 11:54:00,58.0,57.0,-100.00,South,176,8.0,16.0,95,0.00,,,0.49,323.000000,,2013-05-18 15:54:00,
2013-05-18 12:03:00,58.0,57.0,-100.00,South,176,8.0,16.0,95,0.00,,,0.49,323.000000,,2013-05-18 16:03:00,
2013-05-18 12:33:00,59.0,58.0,-100.00,SSE,168,5.0,14.0,98,0.00,,,0.49,321.000000,,2013-05-18 16:33:00,
2013-05-18 12:42:00,59.0,58.0,-100.00,SSE,168,5.0,14.0,98,0.00,,,0.49,321.000000,,2013-05-18 16:42:00,
2013-05-18 12:52:00,59.0,58.0,-100.00,SSE,168,5.0,14.0,98,0.00,,,0.49,321.000000,,2013-05-18 16:52:00,
2013-05-18 13:03:00,59.0,58.0,-100.00,SSE,168,5.0,14.0,98,0.00,,,0.49,321.000000,,2013-05-18 17:03:00,
2013-05-18 13:33:00,59.0,58.0,-100.00,SSE,161,5.0,12.0,96,0.00,,,0.49,230.000000,,2013-05-18 17:33:00,
2013-05-18 13:42:00,59.0,58.0,-100.00,SSE,161,5.0,12.0,96,0.00,,,0.49,230.000000,,2013-05-18 17:42:00,
2013-05-18 13:52:00,59.0,58.0,-100.00,SSE,161,5.0,12.0,96,0.00,,,0.49,230.000000,,2013-05-18 17:52:00,
2013-05-18 14:01:00,59.0,58.0,-100.00,SSE,161,5.0,12.0,96,0.00,,,0.49,230.000000,,2013-05-18 18:01:00,
2013-05-18 14:32:00,60.0,60.0,-100.00,South,173,5.0,10.0,99,0.00,,,0.49,122.000000,,2013-05-18 18:32:00,
2013-05-18 14:42:00,60.0,60.0,-100.00,South,173,5.0,10.0,99,0.00,,,0.49,122.000000,,2013-05-18 18:42:00,
2013-05-18 14:52:00,60.0,60.0,-100.00,South,173,5.0,10.0,99,0.00,,,0.49,122.000000,,2013-05-18 18:52:00,
2013-05-18 15:02:00,60.0,60.0,-100.00,South,173,5.0,10.0,99,0.00,,,0.49,122.000000,,2013-05-18 19:02:00,
2013-05-18 15:32:00,60.0,60.0,-100.00,SSE,168,6.0,12.0,100,0.00,,,0.49,156.000000,,2013-05-18 19:32:00,
2013-05-18 15:42:00,60.0,60.0,-100.00,SSE,168,6.0,12.0,100,0.00,,,0.49,156.000000,,2013-05-18 19:42:00,
2013-05-18 15:52:00,60.0,60.0,-100.00,SSE,168,6.0,12.0,100,0.00,,,0.49,156.000000,,2013-05-18 19:52:00,
2013-05-18 16:02:00,60.0,60.0,-100.00,SSE,168,6.0,12.0,100,0.00,,,0.49,156.000000,,2013-05-18 20:02:00,
2013-05-18 16:32:00,61.0,61.0,-100.00,South,171,4.0,9.0,99,0.00,,,0.49,164.000000,,2013-05-18 20:32:00,
2013-05-18 16:42:00,61.0,61.0,-100.00,South,171,4.0,9.0,99,0.00,,,0.49,164.000000,,2013-05-18 20:42:00,
2013-05-18 16:52:00,61.0,61.0,-100.00,South,171,4.0,9.0,99,0.00,,,0.49,164.000000,,2013-05-18 20:52:00,
2013-05-18 17:01:00,61.0,61.0,-100.00,South,171,4.0,9.0,99,0.00,,,0.49,164.000000,,2013-05-18 21:01:00,
2013-05-18 17:33:00,61.0,60.0,-100.00,SSE,167,5.0,10.0,97,0.00,,,0.49,134.000000,,2013-05-18 21:33:00,
2013-05-18 17:44:00,61.0,60.0,-100.00,SSE,167,5.0,10.0,97,0.00,,,0.49,134.000000,,2013-05-18 21:44:00,
2013-05-18 17:53:00,61.0,60.0,-100.00,SSE,167,5.0,10.0,97,0.00,,,0.49,134.000000,,2013-05-18 21:53:00,
2013-05-18 18:03:00,61.0,60.0,-100.00,SSE,167,5.0,10.0,97,0.00,,,0.49,134.000000,,2013-05-18 22:03:00,
2013-05-18 18:33:00,62.0,61.0,-100.00,SSE,168,6.0,10.0,97,0.00,,,0.49,128.000000,,2013-05-18 22:33:00,
2013-05-18 18:42:00,62.0,61.0,-100.00,SSE,168,6.0,10.0,97,0.00,,,0.49,128.000000,,2013-05-18 22:42:00,
2013-05-18 18:53:00,62.0,61.0,-100.00,SSE,168,6.0,10.0,97,0.00,,,0.49,128.000000,,2013-05-18 22:53:00,
2013-05-18 19:02:00,62.0,61.0,-100.00,SSE,168,6.0,10.0,97,0.00,,,0.49,128.000000,,2013-05-18 23:02:00,
2013-05-18 19:32:00,61.0,61.0,-100.00,SSE,162,4.0,9.0,99,0.00,,,0.49,57.000000,,2013-05-18 23:32:00,
2013-05-18 19:42:00,61.0,61.0,-100.00,SSE,162,4.0,9.0,99,0.00,,,0.49,57.000000,,2013-05-18 23:42:00,
2013-05-18 19:53:00,61.0,61.0,-100.00,SSE,162,4.0,9.0,99,0.00,,,0.49,57.000000,,2013-05-18 23:53:00,
2013-05-18 20:02:00,61.0,61.0,-100.00,SSE,162,4.0,9.0,99,0.00,,,0.49,57.000000,,2013-05-19 00:02:00,
2013-05-18 21:32:00,61.0,61.0,-100.00,SSE,166,4.0,10.0,100,-99.99,,,0.49,4.000000,,2013-05-19 01:32:00,
2013-05-18 21:42:00,61.0,61.0,-100.00,SSE,166,4.0,10.0,100,-99.99,,,0.49,4.000000,,2013-05-19 01:42:00,
2013-05-18 21:52:00,61.0,61.0,-100.00,SSE,166,4.0,10.0,100,-99.99,,,0.49,4.000000,,2013-05-19 01:52:00,
2013-05-18 22:02:00,61.0,61.0,-100.00,SSE,166,4.0,10.0,100,-99.99,,,0.49,4.000000,,2013-05-19 02:02:00,
2013-05-18 22:32:00,61.0,61.0,-100.00,SSE,167,4.0,9.0,100,0.00,,,0.49,0.000000,,2013-05-19 02:32:00,
2013-05-18 22:42:00,61.0,61.0,-100.00,SSE,167,4.0,9.0,100,0.00,,,0.49,0.000000,,2013-05-19 02:42:00,
2013-05-18 22:52:00,61.0,61.0,-100.00,SSE,167,4.0,9.0,100,0.00,,,0.49,0.000000,,2013-05-19 02:52:00,
2013-05-18 23:01:00,61.0,61.0,-100.00,SSE,167,4.0,9.0,100,0.00,,,0.49,0.000000,,2013-05-19 03:01:00,
2013-05-18 23:33:00,61.0,61.0,-100.00,South,173,6.0,10.0,100,0.00,,,0.49,0.000000,,2013-05-19 03:33:00,
2013-05-18 23:43:00,61.0,61.0,-100.00,South,173,6.0,10.0,100,0.00,,,0.49,0.000000,,2013-05-19 03:43:00,
2013-05-18 23:53:00,61.0,61.0,-100.00,South,173,6.0,10.0,100,0.00,,,0.49,0.000000,,2013-05-19 03:53:00,